sensor_id;sensor_type;location;lat;lon;timestamp;P1;durP1;ratioP1;P2;durP2;ratioP2
10452;SDS011;5274;51.992;8.518;2023-07-29T00:02:04;44.90;;;42.03;;
10452;SDS011;5274;51.992;8.518;2023-07-29T00:04:30;44.13;;;41.42;;
10452;SDS011;5274;51.992;8.518;2023-07-29T00:06:56;45.17;;;42.38;;
10452;SDS011;5274;51.992;8.518;2023-07-29T00:09:22;46.78;;;43.78;;
10452;SDS011;5274;51.992;8.518;2023-07-29T00:11:48;46.97;;;43.97;;
10452;SDS011;5274;51.992;8.518;2023-07-29T00:14:14;47.53;;;44.53;;
10452;SDS011;5274;51.992;8.518;2023-07-29T00:16:40;47.90;;;44.80;;
10452;SDS011;5274;51.992;8.518;2023-07-29T00:19:07;46.90;;;43.90;;
10452;SDS011;5274;51.992;8.518;2023-07-29T00:21:33;46.08;;;43.08;;
10452;SDS011;5274;51.992;8.518;2023-07-29T00:24:00;45.25;;;42.40;;
10452;SDS011;5274;51.992;8.518;2023-07-29T00:26:26;45.92;;;43.03;;
10452;SDS011;5274;51.992;8.518;2023-07-29T00:28:54;45.85;;;42.95;;
10452;SDS011;5274;51.992;8.518;2023-07-29T00:31:20;46.17;;;43.28;;
10452;SDS011;5274;51.992;8.518;2023-07-29T00:33:46;45.28;;;42.47;;
10452;SDS011;5274;51.992;8.518;2023-07-29T00:36:11;45.92;;;42.67;;
10452;SDS011;5274;51.992;8.518;2023-07-29T00:38:37;44.72;;;41.83;;
10452;SDS011;5274;51.992;8.518;2023-07-29T00:41:03;44.88;;;41.97;;
10452;SDS011;5274;51.992;8.518;2023-07-29T00:43:30;45.95;;;42.75;;
10452;SDS011;5274;51.992;8.518;2023-07-29T00:45:56;46.97;;;43.88;;
10452;SDS011;5274;51.992;8.518;2023-07-29T00:48:22;46.38;;;43.38;;
10452;SDS011;5274;51.992;8.518;2023-07-29T00:50:49;48.80;;;45.30;;
10452;SDS011;5274;51.992;8.518;2023-07-29T00:53:15;49.55;;;46.25;;
10452;SDS011;5274;51.992;8.518;2023-07-29T00:55:41;49.83;;;46.42;;
10452;SDS011;5274;51.992;8.518;2023-07-29T00:58:07;47.85;;;44.75;;
10452;SDS011;5274;51.992;8.518;2023-07-29T01:00:33;46.67;;;43.45;;
10452;SDS011;5274;51.992;8.518;2023-07-29T01:02:59;46.97;;;43.92;;
10452;SDS011;5274;51.992;8.518;2023-07-29T01:05:27;46.95;;;43.95;;
10452;SDS011;5274;51.992;8.518;2023-07-29T01:07:59;47.05;;;43.85;;
10452;SDS011;5274;51.992;8.518;2023-07-29T01:13:35;38.78;;;36.75;;
10452;SDS011;5274;51.992;8.518;2023-07-29T01:16:09;38.38;;;36.28;;
10452;SDS011;5274;51.992;8.518;2023-07-29T01:18:36;38.08;;;36.08;;
10452;SDS011;5274;51.992;8.518;2023-07-29T01:21:07;38.85;;;36.60;;
10452;SDS011;5274;51.992;8.518;2023-07-29T01:23:34;38.88;;;36.58;;
10452;SDS011;5274;51.992;8.518;2023-07-29T01:26:01;37.28;;;35.38;;
10452;SDS011;5274;51.992;8.518;2023-07-29T01:28:27;37.60;;;35.60;;
10452;SDS011;5274;51.992;8.518;2023-07-29T01:30:57;40.85;;;38.65;;
10452;SDS011;5274;51.992;8.518;2023-07-29T01:33:25;41.78;;;39.47;;
10452;SDS011;5274;51.992;8.518;2023-07-29T01:35:55;41.33;;;39.05;;
10452;SDS011;5274;51.992;8.518;2023-07-29T01:38:33;39.95;;;37.85;;
10452;SDS011;5274;51.992;8.518;2023-07-29T01:41:03;40.90;;;38.60;;
10452;SDS011;5274;51.992;8.518;2023-07-29T01:43:30;38.38;;;36.38;;
10452;SDS011;5274;51.992;8.518;2023-07-29T01:45:56;38.72;;;36.63;;
10452;SDS011;5274;51.992;8.518;2023-07-29T01:48:22;38.80;;;36.80;;
10452;SDS011;5274;51.992;8.518;2023-07-29T01:50:48;38.63;;;36.33;;
10452;SDS011;5274;51.992;8.518;2023-07-29T01:53:14;38.30;;;36.20;;
10452;SDS011;5274;51.992;8.518;2023-07-29T01:55:41;38.78;;;36.67;;
10452;SDS011;5274;51.992;8.518;2023-07-29T01:58:07;38.47;;;36.47;;
10452;SDS011;5274;51.992;8.518;2023-07-29T02:00:33;40.67;;;38.28;;
10452;SDS011;5274;51.992;8.518;2023-07-29T02:02:59;39.65;;;37.65;;
10452;SDS011;5274;51.992;8.518;2023-07-29T02:05:25;39.60;;;37.50;;
10452;SDS011;5274;51.992;8.518;2023-07-29T02:07:51;41.97;;;39.58;;
10452;SDS011;5274;51.992;8.518;2023-07-29T02:10:17;41.30;;;39.20;;
10452;SDS011;5274;51.992;8.518;2023-07-29T02:12:43;42.95;;;40.65;;
10452;SDS011;5274;51.992;8.518;2023-07-29T02:15:09;41.90;;;39.60;;
10452;SDS011;5274;51.992;8.518;2023-07-29T02:17:35;41.20;;;39.00;;
10452;SDS011;5274;51.992;8.518;2023-07-29T02:20:01;39.22;;;37.00;;
10452;SDS011;5274;51.992;8.518;2023-07-29T02:22:28;41.10;;;38.80;;
10452;SDS011;5274;51.992;8.518;2023-07-29T02:24:54;39.28;;;37.28;;
10452;SDS011;5274;51.992;8.518;2023-07-29T02:27:20;39.22;;;37.22;;
10452;SDS011;5274;51.992;8.518;2023-07-29T02:29:46;40.13;;;37.90;;
10452;SDS011;5274;51.992;8.518;2023-07-29T02:32:12;39.17;;;37.08;;
10452;SDS011;5274;51.992;8.518;2023-07-29T02:34:38;38.83;;;36.83;;
10452;SDS011;5274;51.992;8.518;2023-07-29T02:37:05;39.53;;;37.33;;
10452;SDS011;5274;51.992;8.518;2023-07-29T02:39:31;38.47;;;36.47;;
10452;SDS011;5274;51.992;8.518;2023-07-29T02:41:57;38.67;;;36.58;;
10452;SDS011;5274;51.992;8.518;2023-07-29T02:44:23;39.60;;;37.22;;
10452;SDS011;5274;51.992;8.518;2023-07-29T02:46:49;38.20;;;36.20;;
10452;SDS011;5274;51.992;8.518;2023-07-29T02:49:17;38.67;;;36.67;;
10452;SDS011;5274;51.992;8.518;2023-07-29T02:51:43;37.55;;;35.55;;
10452;SDS011;5274;51.992;8.518;2023-07-29T02:54:09;38.88;;;36.30;;
10452;SDS011;5274;51.992;8.518;2023-07-29T02:56:35;38.08;;;36.08;;
10452;SDS011;5274;51.992;8.518;2023-07-29T02:59:01;37.35;;;35.10;;
10452;SDS011;5274;51.992;8.518;2023-07-29T03:01:27;37.05;;;35.15;;
10452;SDS011;5274;51.992;8.518;2023-07-29T03:03:53;37.03;;;35.13;;
10452;SDS011;5274;51.992;8.518;2023-07-29T03:06:18;36.25;;;34.35;;
10452;SDS011;5274;51.992;8.518;2023-07-29T03:08:44;36.03;;;34.13;;
10452;SDS011;5274;51.992;8.518;2023-07-29T03:11:11;36.13;;;34.22;;
10452;SDS011;5274;51.992;8.518;2023-07-29T03:13:38;35.95;;;34.15;;
10452;SDS011;5274;51.992;8.518;2023-07-29T03:16:14;36.63;;;34.72;;
10452;SDS011;5274;51.992;8.518;2023-07-29T03:18:40;37.88;;;35.88;;
10452;SDS011;5274;51.992;8.518;2023-07-29T03:21:06;38.00;;;36.10;;
10452;SDS011;5274;51.992;8.518;2023-07-29T03:23:32;38.47;;;36.50;;
10452;SDS011;5274;51.992;8.518;2023-07-29T03:25:59;37.83;;;35.75;;
10452;SDS011;5274;51.992;8.518;2023-07-29T03:28:26;36.80;;;34.75;;
10452;SDS011;5274;51.992;8.518;2023-07-29T03:30:53;37.17;;;35.17;;
10452;SDS011;5274;51.992;8.518;2023-07-29T03:33:19;36.83;;;34.83;;
10452;SDS011;5274;51.992;8.518;2023-07-29T03:35:45;37.75;;;35.75;;
10452;SDS011;5274;51.992;8.518;2023-07-29T03:38:11;38.05;;;36.15;;
10452;SDS011;5274;51.992;8.518;2023-07-29T03:40:37;38.05;;;36.05;;
10452;SDS011;5274;51.992;8.518;2023-07-29T03:43:03;38.22;;;36.20;;
10452;SDS011;5274;51.992;8.518;2023-07-29T03:45:29;38.33;;;36.33;;
10452;SDS011;5274;51.992;8.518;2023-07-29T03:47:55;37.03;;;35.03;;
10452;SDS011;5274;51.992;8.518;2023-07-29T03:50:21;37.00;;;35.10;;
10452;SDS011;5274;51.992;8.518;2023-07-29T03:52:47;36.88;;;34.97;;
10452;SDS011;5274;51.992;8.518;2023-07-29T03:55:13;35.67;;;33.78;;
10452;SDS011;5274;51.992;8.518;2023-07-29T03:57:39;38.97;;;36.97;;
10452;SDS011;5274;51.992;8.518;2023-07-29T04:00:05;36.22;;;34.28;;
10452;SDS011;5274;51.992;8.518;2023-07-29T04:02:31;37.13;;;35.22;;
10452;SDS011;5274;51.992;8.518;2023-07-29T04:04:57;36.20;;;34.40;;
10452;SDS011;5274;51.992;8.518;2023-07-29T04:07:23;37.95;;;35.72;;
10452;SDS011;5274;51.992;8.518;2023-07-29T04:09:49;37.50;;;35.55;;
10452;SDS011;5274;51.992;8.518;2023-07-29T04:12:15;37.47;;;35.58;;
10452;SDS011;5274;51.992;8.518;2023-07-29T04:14:41;37.05;;;35.15;;
10452;SDS011;5274;51.992;8.518;2023-07-29T04:17:07;39.42;;;37.38;;
10452;SDS011;5274;51.992;8.518;2023-07-29T04:19:33;39.55;;;37.35;;
10452;SDS011;5274;51.992;8.518;2023-07-29T04:21:59;39.30;;;37.20;;
10452;SDS011;5274;51.992;8.518;2023-07-29T04:24:25;39.95;;;37.85;;
10452;SDS011;5274;51.992;8.518;2023-07-29T04:26:51;38.40;;;36.42;;
10452;SDS011;5274;51.992;8.518;2023-07-29T04:29:17;39.33;;;37.22;;
10452;SDS011;5274;51.992;8.518;2023-07-29T04:31:43;38.45;;;36.45;;
10452;SDS011;5274;51.992;8.518;2023-07-29T04:34:09;38.53;;;36.53;;
10452;SDS011;5274;51.992;8.518;2023-07-29T04:36:35;38.05;;;36.15;;
10452;SDS011;5274;51.992;8.518;2023-07-29T04:39:01;37.05;;;35.15;;
10452;SDS011;5274;51.992;8.518;2023-07-29T04:41:26;38.25;;;36.25;;
10452;SDS011;5274;51.992;8.518;2023-07-29T04:43:52;38.38;;;36.40;;
10452;SDS011;5274;51.992;8.518;2023-07-29T04:46:18;36.80;;;35.00;;
10452;SDS011;5274;51.992;8.518;2023-07-29T04:48:44;37.78;;;35.78;;
10452;SDS011;5274;51.992;8.518;2023-07-29T04:51:10;38.10;;;35.80;;
10452;SDS011;5274;51.992;8.518;2023-07-29T04:53:36;37.38;;;35.47;;
10452;SDS011;5274;51.992;8.518;2023-07-29T04:56:03;37.08;;;35.17;;
10452;SDS011;5274;51.992;8.518;2023-07-29T04:58:29;38.30;;;36.40;;
10452;SDS011;5274;51.992;8.518;2023-07-29T05:00:55;38.25;;;36.20;;
10452;SDS011;5274;51.992;8.518;2023-07-29T05:03:21;39.17;;;37.10;;
10452;SDS011;5274;51.992;8.518;2023-07-29T05:05:47;39.80;;;37.70;;
10452;SDS011;5274;51.992;8.518;2023-07-29T05:08:13;39.60;;;37.60;;
10452;SDS011;5274;51.992;8.518;2023-07-29T05:10:39;39.35;;;37.25;;
10452;SDS011;5274;51.992;8.518;2023-07-29T05:13:05;39.33;;;37.13;;
10452;SDS011;5274;51.992;8.518;2023-07-29T05:15:31;38.47;;;36.58;;
10452;SDS011;5274;51.992;8.518;2023-07-29T05:17:57;38.97;;;36.97;;
10452;SDS011;5274;51.992;8.518;2023-07-29T05:20:23;38.88;;;36.88;;
10452;SDS011;5274;51.992;8.518;2023-07-29T05:22:49;36.88;;;35.08;;
10452;SDS011;5274;51.992;8.518;2023-07-29T05:25:15;38.55;;;36.55;;
10452;SDS011;5274;51.992;8.518;2023-07-29T05:27:41;35.00;;;33.22;;
10452;SDS011;5274;51.992;8.518;2023-07-29T05:30:07;37.50;;;35.60;;
10452;SDS011;5274;51.992;8.518;2023-07-29T05:32:33;38.25;;;36.28;;
10452;SDS011;5274;51.992;8.518;2023-07-29T05:34:59;38.13;;;36.10;;
10452;SDS011;5274;51.992;8.518;2023-07-29T05:37:25;38.38;;;36.47;;
10452;SDS011;5274;51.992;8.518;2023-07-29T05:39:51;39.50;;;37.20;;
10452;SDS011;5274;51.992;8.518;2023-07-29T05:42:17;38.90;;;36.90;;
10452;SDS011;5274;51.992;8.518;2023-07-29T05:44:42;40.25;;;37.95;;
10452;SDS011;5274;51.992;8.518;2023-07-29T05:47:08;40.28;;;38.13;;
10452;SDS011;5274;51.992;8.518;2023-07-29T05:49:34;38.90;;;36.90;;
10452;SDS011;5274;51.992;8.518;2023-07-29T05:52:00;39.17;;;37.08;;
10452;SDS011;5274;51.992;8.518;2023-07-29T05:54:26;37.80;;;35.67;;
10452;SDS011;5274;51.992;8.518;2023-07-29T05:56:52;37.00;;;34.90;;
10452;SDS011;5274;51.992;8.518;2023-07-29T05:59:18;37.33;;;35.33;;
10452;SDS011;5274;51.992;8.518;2023-07-29T06:01:44;45.45;;;42.55;;
10452;SDS011;5274;51.992;8.518;2023-07-29T06:04:10;45.40;;;42.00;;
10452;SDS011;5274;51.992;8.518;2023-07-29T06:06:36;41.70;;;39.08;;
10452;SDS011;5274;51.992;8.518;2023-07-29T06:09:02;46.17;;;43.17;;
10452;SDS011;5274;51.992;8.518;2023-07-29T06:11:28;46.40;;;43.17;;
10452;SDS011;5274;51.992;8.518;2023-07-29T06:13:54;46.83;;;43.83;;
10452;SDS011;5274;51.992;8.518;2023-07-29T06:16:20;47.40;;;44.30;;
10452;SDS011;5274;51.992;8.518;2023-07-29T06:18:46;46.90;;;43.80;;
10452;SDS011;5274;51.992;8.518;2023-07-29T06:21:12;47.50;;;44.40;;
10452;SDS011;5274;51.992;8.518;2023-07-29T06:23:42;46.70;;;43.47;;
10452;SDS011;5274;51.992;8.518;2023-07-29T06:26:08;47.00;;;43.95;;
10452;SDS011;5274;51.992;8.518;2023-07-29T06:28:34;47.55;;;44.35;;
10452;SDS011;5274;51.992;8.518;2023-07-29T06:31:00;47.63;;;44.53;;
10452;SDS011;5274;51.992;8.518;2023-07-29T06:33:26;46.75;;;43.55;;
10452;SDS011;5274;51.992;8.518;2023-07-29T06:35:52;45.75;;;42.75;;
10452;SDS011;5274;51.992;8.518;2023-07-29T06:38:18;46.88;;;43.88;;
10452;SDS011;5274;51.992;8.518;2023-07-29T06:40:47;46.35;;;43.40;;
10452;SDS011;5274;51.992;8.518;2023-07-29T06:43:13;45.67;;;42.78;;
10452;SDS011;5274;51.992;8.518;2023-07-29T06:45:39;46.70;;;43.50;;
10452;SDS011;5274;51.992;8.518;2023-07-29T06:48:05;47.20;;;44.10;;
10452;SDS011;5274;51.992;8.518;2023-07-29T06:50:30;49.05;;;45.85;;
10452;SDS011;5274;51.992;8.518;2023-07-29T06:52:56;49.33;;;46.15;;
10452;SDS011;5274;51.992;8.518;2023-07-29T06:55:22;47.97;;;44.75;;
10452;SDS011;5274;51.992;8.518;2023-07-29T06:57:48;45.63;;;42.72;;
10452;SDS011;5274;51.992;8.518;2023-07-29T07:00:14;45.47;;;42.35;;
10452;SDS011;5274;51.992;8.518;2023-07-29T07:02:40;49.10;;;45.70;;
10452;SDS011;5274;51.992;8.518;2023-07-29T07:05:06;49.08;;;45.35;;
10452;SDS011;5274;51.992;8.518;2023-07-29T07:07:32;51.15;;;47.60;;
10452;SDS011;5274;51.992;8.518;2023-07-29T07:09:58;49.90;;;46.35;;
10452;SDS011;5274;51.992;8.518;2023-07-29T07:12:24;51.05;;;47.13;;
10452;SDS011;5274;51.992;8.518;2023-07-29T07:14:50;50.95;;;47.45;;
10452;SDS011;5274;51.992;8.518;2023-07-29T07:17:16;53.13;;;49.05;;
10452;SDS011;5274;51.992;8.518;2023-07-29T07:19:43;51.60;;;47.88;;
10452;SDS011;5274;51.992;8.518;2023-07-29T07:22:09;51.60;;;48.00;;
10452;SDS011;5274;51.992;8.518;2023-07-29T07:24:35;52.28;;;48.58;;
10452;SDS011;5274;51.992;8.518;2023-07-29T07:27:01;54.60;;;50.60;;
10452;SDS011;5274;51.992;8.518;2023-07-29T07:29:27;57.03;;;52.55;;
10452;SDS011;5274;51.992;8.518;2023-07-29T07:31:53;55.40;;;51.38;;
10452;SDS011;5274;51.992;8.518;2023-07-29T07:34:20;54.67;;;50.78;;
10452;SDS011;5274;51.992;8.518;2023-07-29T07:36:46;54.17;;;50.35;;
10452;SDS011;5274;51.992;8.518;2023-07-29T07:39:12;53.90;;;50.10;;
10452;SDS011;5274;51.992;8.518;2023-07-29T07:41:38;50.55;;;47.13;;
10452;SDS011;5274;51.992;8.518;2023-07-29T07:44:04;54.63;;;50.83;;
10452;SDS011;5274;51.992;8.518;2023-07-29T07:46:30;53.97;;;50.28;;
10452;SDS011;5274;51.992;8.518;2023-07-29T07:48:56;49.80;;;46.17;;
10452;SDS011;5274;51.992;8.518;2023-07-29T07:51:21;50.75;;;47.15;;
10452;SDS011;5274;51.992;8.518;2023-07-29T07:53:48;50.42;;;47.05;;
10452;SDS011;5274;51.992;8.518;2023-07-29T07:56:14;51.13;;;47.53;;
10452;SDS011;5274;51.992;8.518;2023-07-29T07:58:40;48.58;;;45.55;;
10452;SDS011;5274;51.992;8.518;2023-07-29T08:01:06;52.25;;;48.95;;
10452;SDS011;5274;51.992;8.518;2023-07-29T08:03:33;52.13;;;48.58;;
10452;SDS011;5274;51.992;8.518;2023-07-29T08:05:59;51.97;;;48.42;;
10452;SDS011;5274;51.992;8.518;2023-07-29T08:08:25;49.63;;;46.42;;
10452;SDS011;5274;51.992;8.518;2023-07-29T08:10:54;45.22;;;42.42;;
10452;SDS011;5274;51.992;8.518;2023-07-29T08:13:22;45.72;;;42.92;;
10452;SDS011;5274;51.992;8.518;2023-07-29T08:15:48;50.20;;;47.00;;
10452;SDS011;5274;51.992;8.518;2023-07-29T08:18:15;49.95;;;46.75;;
10452;SDS011;5274;51.992;8.518;2023-07-29T08:20:41;50.78;;;47.50;;
10452;SDS011;5274;51.992;8.518;2023-07-29T08:23:07;51.05;;;47.85;;
10452;SDS011;5274;51.992;8.518;2023-07-29T08:25:33;51.28;;;48.00;;
10452;SDS011;5274;51.992;8.518;2023-07-29T08:27:59;49.90;;;46.70;;
10452;SDS011;5274;51.992;8.518;2023-07-29T08:30:25;47.95;;;44.70;;
10452;SDS011;5274;51.992;8.518;2023-07-29T08:32:51;48.65;;;45.65;;
10452;SDS011;5274;51.992;8.518;2023-07-29T08:35:16;48.42;;;45.30;;
10452;SDS011;5274;51.992;8.518;2023-07-29T08:37:42;51.00;;;47.65;;
10452;SDS011;5274;51.992;8.518;2023-07-29T08:40:08;48.67;;;45.67;;
10452;SDS011;5274;51.992;8.518;2023-07-29T08:42:34;50.60;;;47.40;;
10452;SDS011;5274;51.992;8.518;2023-07-29T08:45:06;50.13;;;46.95;;
10452;SDS011;5274;51.992;8.518;2023-07-29T08:47:33;50.88;;;47.47;;
10452;SDS011;5274;51.992;8.518;2023-07-29T08:49:59;49.38;;;46.28;;
10452;SDS011;5274;51.992;8.518;2023-07-29T08:52:25;50.30;;;47.10;;
10452;SDS011;5274;51.992;8.518;2023-07-29T08:54:51;51.08;;;47.55;;
10452;SDS011;5274;51.992;8.518;2023-07-29T08:57:18;48.88;;;45.78;;
10452;SDS011;5274;51.992;8.518;2023-07-29T08:59:45;47.30;;;44.10;;
10452;SDS011;5274;51.992;8.518;2023-07-29T09:02:11;46.78;;;43.83;;
10452;SDS011;5274;51.992;8.518;2023-07-29T09:04:37;46.15;;;43.22;;
10452;SDS011;5274;51.992;8.518;2023-07-29T09:07:03;49.42;;;46.22;;
10452;SDS011;5274;51.992;8.518;2023-07-29T09:09:31;54.92;;;51.42;;
10452;SDS011;5274;51.992;8.518;2023-07-29T09:11:57;56.45;;;52.85;;
10452;SDS011;5274;51.992;8.518;2023-07-29T09:14:23;56.55;;;52.95;;
10452;SDS011;5274;51.992;8.518;2023-07-29T09:16:49;56.60;;;53.00;;
10452;SDS011;5274;51.992;8.518;2023-07-29T09:19:15;54.75;;;51.35;;
10452;SDS011;5274;51.992;8.518;2023-07-29T09:21:41;53.00;;;49.80;;
10452;SDS011;5274;51.992;8.518;2023-07-29T09:24:07;47.85;;;44.95;;
10452;SDS011;5274;51.992;8.518;2023-07-29T09:26:35;51.53;;;48.42;;
10452;SDS011;5274;51.992;8.518;2023-07-29T09:29:01;51.65;;;48.53;;
10452;SDS011;5274;51.992;8.518;2023-07-29T09:31:27;54.13;;;50.83;;
10452;SDS011;5274;51.992;8.518;2023-07-29T09:34:00;54.55;;;51.15;;
10452;SDS011;5274;51.992;8.518;2023-07-29T09:36:27;51.35;;;48.05;;
10452;SDS011;5274;51.992;8.518;2023-07-29T09:38:56;51.45;;;48.35;;
10452;SDS011;5274;51.992;8.518;2023-07-29T09:41:25;53.67;;;50.45;;
10452;SDS011;5274;51.992;8.518;2023-07-29T09:43:55;53.65;;;50.35;;
10452;SDS011;5274;51.992;8.518;2023-07-29T09:46:22;53.17;;;49.97;;
10452;SDS011;5274;51.992;8.518;2023-07-29T09:48:49;54.88;;;51.50;;
10452;SDS011;5274;51.992;8.518;2023-07-29T09:51:18;54.88;;;51.47;;
10452;SDS011;5274;51.992;8.518;2023-07-29T09:53:45;54.72;;;51.35;;
10452;SDS011;5274;51.992;8.518;2023-07-29T09:56:11;54.75;;;51.35;;
10452;SDS011;5274;51.992;8.518;2023-07-29T09:58:37;54.75;;;51.35;;
10452;SDS011;5274;51.992;8.518;2023-07-29T10:01:04;54.70;;;51.22;;
10452;SDS011;5274;51.992;8.518;2023-07-29T10:03:30;54.58;;;51.17;;
10452;SDS011;5274;51.992;8.518;2023-07-29T10:05:59;53.65;;;50.25;;
10452;SDS011;5274;51.992;8.518;2023-07-29T10:08:25;53.13;;;49.92;;
10452;SDS011;5274;51.992;8.518;2023-07-29T10:10:52;53.55;;;50.25;;
10452;SDS011;5274;51.992;8.518;2023-07-29T10:13:19;53.83;;;50.53;;
10452;SDS011;5274;51.992;8.518;2023-07-29T10:15:46;50.33;;;47.33;;
10452;SDS011;5274;51.992;8.518;2023-07-29T10:18:12;51.40;;;48.30;;
10452;SDS011;5274;51.992;8.518;2023-07-29T10:20:38;52.30;;;49.10;;
10452;SDS011;5274;51.992;8.518;2023-07-29T10:23:05;53.58;;;50.17;;
10452;SDS011;5274;51.992;8.518;2023-07-29T10:25:39;55.00;;;51.38;;
10452;SDS011;5274;51.992;8.518;2023-07-29T10:28:08;53.75;;;50.35;;
10452;SDS011;5274;51.992;8.518;2023-07-29T10:30:37;55.38;;;51.88;;
10452;SDS011;5274;51.992;8.518;2023-07-29T10:33:04;55.45;;;52.00;;
10452;SDS011;5274;51.992;8.518;2023-07-29T10:35:34;55.22;;;51.63;;
10452;SDS011;5274;51.992;8.518;2023-07-29T10:38:01;54.75;;;51.35;;
10452;SDS011;5274;51.992;8.518;2023-07-29T10:40:37;41.05;;;38.95;;
10452;SDS011;5274;51.992;8.518;2023-07-29T10:43:09;40.42;;;38.33;;
10452;SDS011;5274;51.992;8.518;2023-07-29T10:45:39;51.75;;;48.65;;
10452;SDS011;5274;51.992;8.518;2023-07-29T10:48:06;51.78;;;48.67;;
10452;SDS011;5274;51.992;8.518;2023-07-29T10:50:33;50.65;;;47.58;;
10452;SDS011;5274;51.992;8.518;2023-07-29T10:53:00;54.30;;;50.90;;
10452;SDS011;5274;51.992;8.518;2023-07-29T10:55:27;52.50;;;49.30;;
10452;SDS011;5274;51.992;8.518;2023-07-29T10:58:04;52.03;;;48.83;;
10452;SDS011;5274;51.992;8.518;2023-07-29T11:00:30;49.67;;;46.78;;
10452;SDS011;5274;51.992;8.518;2023-07-29T11:03:01;50.40;;;47.35;;
10452;SDS011;5274;51.992;8.518;2023-07-29T11:05:41;51.55;;;48.45;;
10452;SDS011;5274;51.992;8.518;2023-07-29T11:08:17;50.53;;;47.53;;
10452;SDS011;5274;51.992;8.518;2023-07-29T11:10:44;52.58;;;49.38;;
10452;SDS011;5274;51.992;8.518;2023-07-29T11:13:22;53.15;;;49.78;;
10452;SDS011;5274;51.992;8.518;2023-07-29T11:15:48;53.00;;;49.80;;
10452;SDS011;5274;51.992;8.518;2023-07-29T11:18:15;50.65;;;47.65;;
10452;SDS011;5274;51.992;8.518;2023-07-29T11:20:42;53.45;;;50.25;;
10452;SDS011;5274;51.992;8.518;2023-07-29T11:23:08;51.10;;;48.10;;
10452;SDS011;5274;51.992;8.518;2023-07-29T11:25:34;52.35;;;49.15;;
10452;SDS011;5274;51.992;8.518;2023-07-29T11:28:00;52.70;;;49.58;;
10452;SDS011;5274;51.992;8.518;2023-07-29T11:30:26;50.88;;;47.85;;
10452;SDS011;5274;51.992;8.518;2023-07-29T11:32:54;49.65;;;46.75;;
10452;SDS011;5274;51.992;8.518;2023-07-29T11:35:20;52.33;;;49.22;;
10452;SDS011;5274;51.992;8.518;2023-07-29T11:37:48;53.45;;;49.75;;
10452;SDS011;5274;51.992;8.518;2023-07-29T11:40:14;52.53;;;49.35;;
10452;SDS011;5274;51.992;8.518;2023-07-29T11:42:41;53.20;;;50.00;;
10452;SDS011;5274;51.992;8.518;2023-07-29T11:45:07;53.65;;;50.25;;
10452;SDS011;5274;51.992;8.518;2023-07-29T11:47:34;53.08;;;49.88;;
10452;SDS011;5274;51.992;8.518;2023-07-29T11:50:01;53.95;;;50.75;;
10452;SDS011;5274;51.992;8.518;2023-07-29T11:52:28;54.72;;;51.45;;
10452;SDS011;5274;51.992;8.518;2023-07-29T11:54:54;53.85;;;50.65;;
10452;SDS011;5274;51.992;8.518;2023-07-29T11:57:20;54.10;;;50.78;;
10452;SDS011;5274;51.992;8.518;2023-07-29T11:59:46;54.83;;;51.42;;
10452;SDS011;5274;51.992;8.518;2023-07-29T12:02:13;54.15;;;50.85;;
10452;SDS011;5274;51.992;8.518;2023-07-29T12:04:39;54.47;;;51.17;;
10452;SDS011;5274;51.992;8.518;2023-07-29T12:07:06;52.72;;;49.63;;
10452;SDS011;5274;51.992;8.518;2023-07-29T12:09:33;53.55;;;50.35;;
10452;SDS011;5274;51.992;8.518;2023-07-29T12:11:59;52.30;;;49.17;;
10452;SDS011;5274;51.992;8.518;2023-07-29T12:14:28;53.03;;;49.83;;
10452;SDS011;5274;51.992;8.518;2023-07-29T12:16:54;54.15;;;50.85;;
10452;SDS011;5274;51.992;8.518;2023-07-29T12:19:20;54.00;;;50.60;;
10452;SDS011;5274;51.992;8.518;2023-07-29T12:21:47;53.85;;;50.60;;
10452;SDS011;5274;51.992;8.518;2023-07-29T12:24:13;51.47;;;48.38;;
10452;SDS011;5274;51.992;8.518;2023-07-29T12:26:40;50.88;;;47.70;;
10452;SDS011;5274;51.992;8.518;2023-07-29T12:29:13;51.92;;;48.72;;
10452;SDS011;5274;51.992;8.518;2023-07-29T12:31:39;52.67;;;49.47;;
10452;SDS011;5274;51.992;8.518;2023-07-29T12:34:05;53.25;;;49.95;;
10452;SDS011;5274;51.992;8.518;2023-07-29T12:36:47;51.35;;;48.25;;
10452;SDS011;5274;51.992;8.518;2023-07-29T12:39:20;51.72;;;48.53;;
10452;SDS011;5274;51.992;8.518;2023-07-29T12:41:47;53.00;;;49.75;;
10452;SDS011;5274;51.992;8.518;2023-07-29T12:44:13;51.78;;;48.47;;
10452;SDS011;5274;51.992;8.518;2023-07-29T12:46:39;52.45;;;49.25;;
10452;SDS011;5274;51.992;8.518;2023-07-29T12:49:05;53.85;;;50.45;;
10452;SDS011;5274;51.992;8.518;2023-07-29T12:51:32;54.38;;;50.67;;
10452;SDS011;5274;51.992;8.518;2023-07-29T12:53:58;54.67;;;51.17;;
10452;SDS011;5274;51.992;8.518;2023-07-29T12:56:24;54.47;;;51.13;;
10452;SDS011;5274;51.992;8.518;2023-07-29T12:58:49;54.95;;;51.55;;
10452;SDS011;5274;51.992;8.518;2023-07-29T13:01:15;52.65;;;49.45;;
10452;SDS011;5274;51.992;8.518;2023-07-29T13:03:45;52.22;;;48.83;;
10452;SDS011;5274;51.992;8.518;2023-07-29T13:06:11;52.72;;;49.53;;
10452;SDS011;5274;51.992;8.518;2023-07-29T13:08:37;53.47;;;50.17;;
10452;SDS011;5274;51.992;8.518;2023-07-29T13:11:03;53.40;;;50.00;;
10452;SDS011;5274;51.992;8.518;2023-07-29T13:13:30;54.85;;;51.38;;
10452;SDS011;5274;51.992;8.518;2023-07-29T13:15:56;55.70;;;52.00;;
10452;SDS011;5274;51.992;8.518;2023-07-29T13:18:22;55.58;;;52.08;;
10452;SDS011;5274;51.992;8.518;2023-07-29T13:20:48;51.40;;;48.30;;
10452;SDS011;5274;51.992;8.518;2023-07-29T13:23:15;51.45;;;48.35;;
10452;SDS011;5274;51.992;8.518;2023-07-29T13:25:41;51.70;;;48.50;;
10452;SDS011;5274;51.992;8.518;2023-07-29T13:28:08;54.17;;;50.78;;
10452;SDS011;5274;51.992;8.518;2023-07-29T13:30:34;55.63;;;52.03;;
10452;SDS011;5274;51.992;8.518;2023-07-29T13:33:00;56.78;;;53.17;;
10452;SDS011;5274;51.992;8.518;2023-07-29T13:35:26;49.10;;;46.20;;
10452;SDS011;5274;51.992;8.518;2023-07-29T13:37:52;55.90;;;52.38;;
10452;SDS011;5274;51.992;8.518;2023-07-29T13:40:18;48.72;;;45.83;;
10452;SDS011;5274;51.992;8.518;2023-07-29T13:42:44;53.67;;;50.28;;
10452;SDS011;5274;51.992;8.518;2023-07-29T13:45:10;48.63;;;45.70;;
10452;SDS011;5274;51.992;8.518;2023-07-29T13:47:36;53.15;;;49.95;;
10452;SDS011;5274;51.992;8.518;2023-07-29T13:50:02;46.67;;;43.97;;
10452;SDS011;5274;51.992;8.518;2023-07-29T13:52:28;54.90;;;51.50;;
10452;SDS011;5274;51.992;8.518;2023-07-29T13:54:54;49.47;;;46.47;;
10452;SDS011;5274;51.992;8.518;2023-07-29T13:57:20;55.92;;;52.40;;
10452;SDS011;5274;51.992;8.518;2023-07-29T13:59:46;50.90;;;47.83;;
10452;SDS011;5274;51.992;8.518;2023-07-29T14:02:13;56.70;;;53.10;;
10452;SDS011;5274;51.992;8.518;2023-07-29T14:04:39;56.67;;;52.97;;
10452;SDS011;5274;51.992;8.518;2023-07-29T14:07:04;50.50;;;47.50;;
10452;SDS011;5274;51.992;8.518;2023-07-29T14:09:30;53.40;;;49.92;;
10452;SDS011;5274;51.992;8.518;2023-07-29T14:11:57;55.03;;;51.53;;
10452;SDS011;5274;51.992;8.518;2023-07-29T14:14:23;54.20;;;50.80;;
10452;SDS011;5274;51.992;8.518;2023-07-29T14:16:49;53.70;;;50.40;;
10452;SDS011;5274;51.992;8.518;2023-07-29T14:19:15;56.58;;;53.08;;
10452;SDS011;5274;51.992;8.518;2023-07-29T14:21:41;58.42;;;54.65;;
10452;SDS011;5274;51.992;8.518;2023-07-29T14:24:07;58.28;;;54.55;;
10452;SDS011;5274;51.992;8.518;2023-07-29T14:26:33;53.50;;;50.30;;
10452;SDS011;5274;51.992;8.518;2023-07-29T14:28:59;53.38;;;50.13;;
10452;SDS011;5274;51.992;8.518;2023-07-29T14:31:25;56.25;;;52.75;;
10452;SDS011;5274;51.992;8.518;2023-07-29T14:33:51;54.22;;;50.80;;